aviador You're here:

VGHS Decoded Metar

in
Report Time2017-09-24 23:00:00
UTC Time2017-09-24 23:08:46
Flight Rules ifr IFR
WindCalm
Visibility4000 m
Phenomena:Haze
Clouds:Scattered 015 Hf
Broken 100 Hf
Expected CloudBase > 1,200 ft AGL from Temp-Dew spread
Ceiling10,000 ft
Temp28°C
Dew Point25°C (84% RH)
Heat Index32.7°C
QNH1005 hPa
Raw Report
METAR VGHS 242300Z 00000KT 4000 HZ SCT015 BKN100 28/25 Q1005 NOSIG=

Extra information for VGHS:More info

Social comments